createdAt,value
2017-02-06T00:14:24.156Z,3.43
2017-02-06T00:15:10.209Z,3.41
2017-02-06T00:15:59.640Z,3.41
2017-02-06T00:16:48.571Z,3.36
2017-02-06T00:17:37.115Z,3.36
2017-02-06T00:18:25.647Z,3.31
2017-02-06T00:19:14.297Z,3.34
2017-02-06T00:20:03.190Z,3.33
2017-02-06T00:20:51.489Z,3.37
2017-02-06T00:21:40.245Z,3.4
2017-02-06T00:44:14.559Z,3.64
2017-02-06T00:45:03.370Z,3.66
2017-02-06T00:45:52.427Z,3.74
2017-02-06T00:46:40.984Z,3.7
2017-02-06T00:47:30.063Z,3.73
2017-02-06T00:48:18.941Z,3.73
2017-02-06T00:49:07.479Z,3.71
2017-02-06T00:49:56.472Z,3.73
2017-02-06T00:50:45.064Z,3.73
2017-02-06T00:51:33.940Z,3.73
2017-02-06T00:52:22.871Z,3.67
2017-02-06T00:53:11.241Z,3.66
2017-02-06T00:53:59.565Z,3.63
2017-02-06T00:54:50.048Z,3.64
2017-02-06T00:55:38.579Z,3.68
2017-02-06T00:56:27.954Z,3.81
2017-02-06T00:57:16.565Z,3.74
2017-02-06T00:58:04.615Z,3.74
2017-02-06T00:58:53.820Z,3.74
2017-02-06T00:59:43.237Z,3.73
2017-02-06T01:00:31.864Z,3.81
2017-02-06T01:01:20.863Z,3.82
2017-02-06T01:02:09.557Z,3.81
2017-02-06T01:02:58.198Z,3.77
2017-02-06T01:03:46.975Z,3.82
2017-02-06T01:04:35.748Z,3.85
2017-02-06T01:05:25.395Z,3.81
2017-02-06T01:06:14.373Z,3.74
2017-02-06T01:07:03.347Z,3.81
2017-02-06T01:07:51.854Z,3.77
2017-02-06T01:08:40.787Z,3.76
2017-02-06T01:09:29.105Z,3.91
2017-02-06T01:10:18.284Z,3.78
2017-02-06T01:11:06.843Z,3.68
2017-02-06T01:11:55.416Z,3.77
2017-02-06T01:12:43.746Z,3.81
2017-02-06T02:00:47.035Z,3.88
2017-02-06T02:01:33.671Z,3.82
2017-02-06T02:03:14.630Z,3.82
2017-02-06T02:04:03.609Z,3.82
2017-02-06T02:04:50.516Z,3.84
2017-02-06T02:05:39.061Z,3.88
2017-02-06T02:06:27.842Z,3.85
2017-02-06T02:07:16.465Z,3.82
2017-02-06T02:08:05.485Z,3.82
2017-02-06T02:08:53.605Z,3.85
2017-02-06T02:09:42.867Z,3.86
2017-02-06T02:10:31.001Z,3.92
2017-02-06T02:11:19.651Z,3.88
2017-02-06T02:12:08.493Z,3.89
2017-02-06T02:12:56.990Z,4
2017-02-06T02:13:45.774Z,3.86
2017-02-06T02:14:34.118Z,3.91
2017-02-06T02:15:22.500Z,3.88
2017-02-06T02:16:11.450Z,3.84
2017-02-06T02:17:00.137Z,3.85
2017-02-06T02:17:49.341Z,3.81
2017-02-06T02:18:37.661Z,3.85
2017-02-06T02:19:26.317Z,3.85
2017-02-06T02:20:15.048Z,3.91
2017-02-06T02:21:03.596Z,3.88
2017-02-06T02:21:52.306Z,3.84
2017-02-06T02:22:40.897Z,3.88
2017-02-06T02:23:29.669Z,3.84
2017-02-06T02:24:18.570Z,3.86
2017-02-06T02:25:06.963Z,3.88
2017-02-06T02:25:53.836Z,3.85
2017-02-06T02:26:34.763Z,3.85
2017-02-06T02:27:15.199Z,3.88
2017-02-06T02:27:56.721Z,3.85
2017-02-06T02:28:37.879Z,3.91
2017-02-06T02:29:20.386Z,3.85
2017-02-06T02:30:01.762Z,3.89
2017-02-06T02:30:42.245Z,3.88
2017-02-06T02:31:24.763Z,3.77
2017-02-06T02:32:05.204Z,3.85
2017-02-06T02:32:45.661Z,3.77
2017-02-06T02:33:26.134Z,3.84
2017-02-06T02:34:06.601Z,3.78
2017-02-06T02:34:48.151Z,3.84
2017-02-06T02:35:28.617Z,3.74
2017-02-06T02:36:09.764Z,3.71
2017-02-06T02:36:54.791Z,3.73
2017-02-06T02:37:42.766Z,3.82
2017-02-06T02:38:23.212Z,3.77
2017-02-06T02:39:03.668Z,3.77
2017-02-06T02:39:45.126Z,3.84
2017-02-06T02:40:25.601Z,3.77
2017-02-06T02:41:07.442Z,3.77
2017-02-06T02:41:47.853Z,3.71
2017-02-06T02:45:35.423Z,3.78
2017-02-06T02:46:24.270Z,3.82
2017-02-06T02:47:12.679Z,3.81
2017-02-06T02:48:01.460Z,3.78
2017-02-06T02:48:50.144Z,3.74
2017-02-06T02:49:38.771Z,3.74
2017-02-06T02:50:27.503Z,3.77
2017-02-06T02:51:16.129Z,3.85
2017-02-06T02:52:04.738Z,3.85
2017-02-06T02:52:53.655Z,3.77
2017-02-06T02:53:41.946Z,3.7
2017-02-06T02:54:30.463Z,3.66
2017-02-06T02:55:19.608Z,3.68
2017-02-06T02:56:07.985Z,3.7
2017-02-06T02:56:56.834Z,3.81
2017-02-06T02:57:45.358Z,3.77
2017-02-06T02:58:34.241Z,3.81
2017-02-06T02:59:22.694Z,3.74
2017-02-06T03:00:11.474Z,3.76
2017-02-06T03:00:59.882Z,3.77
2017-02-06T03:01:48.751Z,3.82
2017-02-06T03:02:37.296Z,3.84
2017-02-06T03:03:25.836Z,3.89
2017-02-06T03:04:14.336Z,3.77
2017-02-06T03:05:03.232Z,3.81
2017-02-06T03:05:51.917Z,3.94
2017-02-06T03:06:40.879Z,3.82
2017-02-06T03:07:29.678Z,3.78
2017-02-06T03:08:18.202Z,3.82
2017-02-06T03:09:06.822Z,3.78
2017-02-06T03:09:55.239Z,3.91
2017-02-06T03:10:43.963Z,3.89
2017-02-06T03:16:11.116Z,3.78
2017-02-06T03:16:59.883Z,3.68
2017-02-06T03:19:22.562Z,3.77
2017-02-06T03:20:10.987Z,3.74
2017-02-06T04:21:47.417Z,3.31
2017-02-06T04:22:35.980Z,3.31
2017-02-06T04:23:25.249Z,3.26
2017-02-06T04:24:14.041Z,3.24
2017-02-06T04:25:02.528Z,3.26
2017-02-06T04:25:51.060Z,3.31
2017-02-06T04:26:39.921Z,3.29
2017-02-06T04:27:28.690Z,3.33
2017-02-06T04:28:17.007Z,3.26
2017-02-06T04:29:07.892Z,3.24
2017-02-06T04:29:54.165Z,3.3
2017-02-06T04:30:56.659Z,3.31
2017-02-06T04:32:18.687Z,3.26
2017-02-06T04:32:58.938Z,3.43
2017-02-06T04:33:39.469Z,3.4
2017-02-06T04:34:19.928Z,3.36
2017-02-06T04:35:00.530Z,3.36
2017-02-06T04:35:40.978Z,3.46
2017-02-06T04:36:21.408Z,3.48
2017-02-06T04:37:01.850Z,3.52
2017-02-06T04:37:42.258Z,3.5
2017-02-06T04:38:22.727Z,3.48
2017-02-06T04:39:03.168Z,3.49
2017-02-06T04:39:43.680Z,3.58
2017-02-06T04:40:24.155Z,3.61
2017-02-06T04:41:04.920Z,3.55
2017-02-06T04:41:46.090Z,3.61
2017-02-06T04:42:28.357Z,3.55
2017-02-06T05:00:08.573Z,3.86
2017-02-06T05:00:57.217Z,3.71
2017-02-06T05:01:45.916Z,3.84
2017-02-06T05:02:34.614Z,3.71
2017-02-06T05:03:23.352Z,3.78
2017-02-06T05:04:12.418Z,3.68
2017-02-06T05:05:02.449Z,3.78
2017-02-06T05:05:52.263Z,3.76
2017-02-06T05:06:43.708Z,3.82
2017-02-06T05:07:32.885Z,3.77
2017-02-06T05:08:21.329Z,3.77
2017-02-06T05:09:09.750Z,3.7
2017-02-06T05:10:00.112Z,3.76
2017-02-06T05:10:48.620Z,3.77
2017-02-06T05:11:37.927Z,3.78
2017-02-06T05:12:26.007Z,3.7
2017-02-06T05:13:14.860Z,3.78
2017-02-06T05:14:05.047Z,3.76
2017-02-06T05:14:55.458Z,3.68
2017-02-06T05:15:45.911Z,3.68
2017-02-06T05:16:34.633Z,3.71
2017-02-06T05:17:25.465Z,3.73
2017-02-06T05:18:14.018Z,3.71
2017-02-06T05:19:04.981Z,3.71
2017-02-06T05:19:53.740Z,3.73
2017-02-06T05:20:42.072Z,3.71
2017-02-06T05:21:31.541Z,3.71
2017-02-06T05:22:20.845Z,3.67
2017-02-06T05:23:09.353Z,3.67
2017-02-06T05:25:00.457Z,3.68
2017-02-06T05:25:48.070Z,3.7
2017-02-06T05:26:33.952Z,3.73
2017-02-06T05:27:23.165Z,3.77
2017-02-06T05:28:11.597Z,3.73
2017-02-06T05:29:00.151Z,3.66
2017-02-06T05:29:48.757Z,3.73
2017-02-06T05:30:37.340Z,3.66
2017-02-06T05:31:26.506Z,3.67
2017-02-06T05:32:14.631Z,3.68
2017-02-06T05:33:03.126Z,3.68
2017-02-06T10:37:19.439Z,8.96
2017-02-06T10:38:08.446Z,8.95
2017-02-06T10:38:56.679Z,9.09
2017-02-06T10:39:45.210Z,9.08
2017-02-06T10:40:33.616Z,9.18
2017-02-06T10:41:22.407Z,9.3
2017-02-06T10:42:11.540Z,9.34
2017-02-06T10:42:59.759Z,9.49
2017-02-06T10:43:48.621Z,9.45
2017-02-06T10:44:37.189Z,9.54
2017-02-06T10:45:26.099Z,9.54
2017-02-06T10:46:14.904Z,9.59
2017-02-06T10:47:03.091Z,9.67
2017-02-06T10:47:51.726Z,9.8
2017-02-06T10:48:40.367Z,9.94
2017-02-06T10:49:29.344Z,10.02
2017-02-06T10:50:17.727Z,10.02
2017-02-06T10:51:06.293Z,10.17
2017-02-06T10:51:54.691Z,10.24
2017-02-06T10:52:43.730Z,10.3
2017-02-06T10:53:32.277Z,10.33
2017-02-06T10:54:21.234Z,10.43
2017-02-06T10:55:09.768Z,10.46
2017-02-06T10:55:58.459Z,10.48
2017-02-06T10:56:47.161Z,10.46
2017-02-06T10:57:35.950Z,10.43
2017-02-06T10:58:24.650Z,10.58
2017-02-06T10:59:12.798Z,10.61
2017-02-06T11:00:01.732Z,10.69
2017-02-06T11:00:50.584Z,10.69
2017-02-06T11:01:38.892Z,10.87
2017-02-06T11:02:27.675Z,10.9
2017-02-06T11:03:16.278Z,10.98
2017-02-06T11:04:04.738Z,11
2017-02-06T11:04:53.714Z,11.12
2017-02-06T11:05:42.563Z,11.07
2017-02-06T11:06:31.323Z,11.1
2017-02-06T11:07:19.693Z,11.04
2017-02-06T11:08:08.646Z,11.1
2017-02-06T11:08:57.210Z,10.97
2017-02-06T11:09:45.727Z,11.01
2017-02-06T11:10:34.375Z,11.07
2017-02-06T11:11:22.943Z,11.18
2017-02-06T11:12:11.932Z,11.22
2017-02-06T11:13:00.289Z,11.34
2017-02-06T11:13:46.868Z,11.53
2017-02-06T11:14:28.072Z,11.44
2017-02-06T11:15:12.113Z,11.55
2017-02-06T11:15:54.179Z,11.68
2017-02-06T11:16:34.651Z,11.71
2017-02-06T11:17:17.546Z,11.78
2017-02-06T11:17:58.586Z,11.93
2017-02-06T11:18:39.015Z,11.97
2017-02-06T11:19:21.094Z,12
2017-02-06T11:20:03.066Z,12.03
2017-02-06T11:20:43.594Z,11.97
2017-02-06T11:21:24.987Z,11.93
2017-02-06T11:22:06.229Z,11.88
2017-02-06T11:22:48.673Z,11.89
2017-02-06T11:25:07.059Z,11.81
2017-02-06T11:25:55.440Z,11.74
2017-02-06T11:26:43.856Z,11.7
2017-02-06T11:27:32.829Z,11.73
2017-02-06T11:28:21.537Z,11.73
2017-02-06T11:29:09.968Z,11.76
2017-02-06T11:31:00.814Z,11.89
2017-02-06T11:31:49.479Z,11.91
2017-02-06T11:32:38.254Z,12.02
2017-02-06T11:33:26.976Z,12.11
2017-02-06T11:34:15.485Z,12.2
2017-02-06T11:35:04.354Z,12.23
2017-02-06T11:35:53.248Z,12.36
2017-02-06T11:36:42.369Z,12.39
2017-02-06T11:39:07.517Z,12.66
2017-02-06T11:39:56.138Z,12.63
2017-02-06T11:40:44.476Z,12.63
2017-02-06T11:41:33.345Z,12.78
2017-02-06T11:42:22.134Z,12.84
2017-02-06T11:43:10.805Z,12.83
2017-02-06T11:43:59.590Z,12.81
2017-02-06T11:44:47.697Z,12.87
2017-02-06T11:45:36.508Z,12.88
2017-02-06T11:46:25.397Z,13.03
2017-02-06T11:47:13.653Z,13.16
2017-02-06T11:48:02.589Z,13.24
2017-02-06T11:48:51.306Z,13.28
2017-02-06T11:49:39.694Z,13.39
2017-02-06T11:50:28.563Z,13.6
2017-02-06T11:51:17.153Z,13.89
2017-02-06T11:52:06.014Z,13.97
2017-02-06T11:52:54.764Z,14.08
2017-02-06T11:53:43.836Z,14.22
2017-02-06T11:54:32.453Z,14.34
2017-02-06T11:55:21.595Z,14.49
2017-02-06T11:56:10.146Z,14.52
2017-02-06T11:56:58.542Z,14.62
2017-02-06T11:57:47.570Z,14.78
2017-02-06T11:58:36.173Z,14.89
2017-02-06T11:59:25.007Z,14.87
2017-02-06T12:00:13.881Z,14.92
2017-02-06T12:01:02.975Z,15
2017-02-06T12:01:51.380Z,14.94
2017-02-06T12:02:40.161Z,14.86
2017-02-06T12:03:29.174Z,14.74
2017-02-06T12:04:18.401Z,14.63
2017-02-06T12:05:07.295Z,14.7
2017-02-06T12:05:55.430Z,14.85
2017-02-06T12:06:44.871Z,14.93
2017-02-06T12:09:07.685Z,14.92
2017-02-06T12:09:56.307Z,14.87
2017-02-06T12:10:45.094Z,14.94
2017-02-06T12:11:33.209Z,15.04
2017-02-06T12:12:22.170Z,15
2017-02-06T12:13:11.041Z,15.08
2017-02-06T12:13:59.617Z,15.18
2017-02-06T12:14:48.614Z,15.3
2017-02-06T12:15:37.504Z,15.59
2017-02-06T12:16:26.268Z,15.85
2017-02-06T12:17:15.092Z,16
2017-02-06T12:18:03.903Z,16.22
2017-02-06T12:18:52.155Z,16.34
2017-02-06T12:19:41.275Z,16.51
2017-02-06T12:22:02.968Z,16.4
2017-02-06T12:22:52.112Z,16.21
2017-02-06T12:23:40.934Z,16.1
2017-02-06T12:26:01.756Z,16.05
2017-02-06T12:26:51.090Z,16.22
2017-02-06T12:27:41.486Z,16.32
2017-02-06T12:28:30.194Z,16.36
2017-02-06T12:29:19.864Z,16.31
2017-02-06T12:30:08.740Z,16.25
2017-02-06T12:30:58.011Z,16.25
2017-02-06T12:31:47.413Z,16.25
2017-02-06T12:32:35.803Z,15.99
2017-02-06T12:33:24.596Z,15.88
2017-02-06T12:34:12.478Z,15.67
2017-02-06T12:35:01.663Z,15.67
2017-02-06T12:35:50.289Z,15.81
2017-02-06T12:36:38.966Z,15.67
2017-02-06T12:37:27.920Z,15.6
2017-02-06T12:38:16.660Z,15.5
2017-02-06T12:39:05.261Z,15.33
2017-02-06T12:39:53.633Z,15.15
2017-02-06T12:40:42.350Z,14.97
2017-02-06T12:41:31.175Z,14.92
2017-02-06T12:42:19.835Z,14.86
2017-02-06T12:43:09.104Z,14.82
2017-02-06T12:43:57.166Z,14.77
2017-02-06T12:44:46.226Z,14.87
2017-02-06T12:45:35.108Z,14.96
2017-02-06T12:46:23.928Z,15.22
2017-02-06T12:47:12.197Z,15.29
2017-02-06T12:48:01.221Z,15.52
2017-02-06T12:48:49.754Z,15.67
2017-02-06T12:49:38.639Z,15.84
2017-02-06T12:50:26.843Z,16.09
2017-02-06T12:51:16.194Z,16.24
2017-02-06T12:52:05.098Z,16.34
2017-02-06T12:52:54.268Z,16.46
2017-02-06T12:53:42.574Z,16.47
2017-02-06T12:54:31.542Z,16.64
2017-02-06T12:55:20.762Z,16.79
2017-02-06T12:56:09.102Z,16.97
2017-02-06T12:58:00.467Z,17.46
2017-02-06T12:58:50.503Z,17.75
2017-02-06T12:59:39.290Z,17.9
2017-02-06T13:00:28.921Z,18.11
2017-02-06T13:01:17.824Z,18.24
2017-02-06T13:02:06.746Z,18.3
2017-02-06T13:02:55.745Z,18.31
2017-02-06T13:03:44.644Z,18.24
2017-02-06T13:04:34.313Z,17.95
2017-02-06T13:05:22.666Z,17.91
2017-02-06T13:06:11.787Z,17.91
2017-02-06T13:07:00.218Z,17.78
2017-02-06T13:07:49.173Z,17.69
2017-02-06T13:08:37.871Z,17.59
2017-02-06T13:09:26.767Z,17.56
2017-02-06T13:10:16.008Z,17.52
2017-02-06T13:11:04.231Z,17.46
2017-02-06T13:11:52.853Z,17.52
2017-02-06T13:12:42.238Z,17.28
2017-02-06T13:13:30.351Z,17.1
2017-02-06T13:14:19.011Z,17.05
2017-02-06T13:15:08.013Z,17.14
2017-02-06T13:15:56.678Z,17.02
2017-02-06T13:16:46.863Z,16.97
2017-02-06T13:17:35.378Z,16.87
2017-02-06T13:18:24.346Z,16.76
2017-02-06T13:19:14.433Z,16.66
2017-02-06T13:20:03.258Z,16.5
2017-02-06T13:20:52.500Z,16.39
2017-02-06T13:21:41.324Z,16.18
2017-02-06T13:22:30.277Z,16.05
2017-02-06T13:23:18.911Z,15.88
2017-02-06T13:24:07.898Z,15.81
2017-02-06T13:24:56.448Z,15.57
2017-02-06T13:25:45.856Z,15.23
2017-02-06T13:26:34.331Z,15.02
2017-02-06T13:27:23.285Z,14.74
2017-02-06T13:28:11.864Z,14.49
2017-02-06T13:29:00.779Z,14.34
2017-02-06T13:29:48.961Z,14.18
2017-02-06T13:30:38.787Z,14.05
2017-02-06T13:31:27.531Z,13.93
2017-02-06T13:32:16.771Z,13.78
2017-02-06T13:33:05.817Z,13.65
2017-02-06T13:33:54.404Z,13.49
2017-02-06T13:34:45.032Z,13.43
2017-02-06T13:35:34.060Z,13.37
2017-02-06T13:36:22.313Z,13.3
2017-02-06T13:37:10.821Z,13.24
2017-02-06T13:37:59.653Z,13.19
2017-02-06T13:38:48.016Z,13.12
2017-02-06T13:39:36.988Z,13.05
2017-02-06T13:40:25.481Z,12.93
2017-02-06T13:41:14.143Z,12.84
2017-02-06T13:42:02.502Z,12.76
2017-02-06T13:42:51.416Z,12.7
2017-02-06T13:43:39.817Z,12.65
2017-02-06T13:44:28.426Z,12.66
2017-02-06T13:45:17.305Z,12.66
2017-02-06T13:46:06.774Z,12.63
2017-02-06T13:46:55.045Z,12.58
2017-02-06T13:47:43.712Z,12.45
2017-02-06T13:50:05.976Z,12.35
2017-02-06T13:50:54.779Z,12.36
2017-02-06T13:51:43.431Z,12.25
2017-02-06T13:52:32.541Z,12.25
2017-02-06T13:53:21.938Z,12.15
2017-02-06T13:54:10.074Z,12.18
2017-02-06T13:54:59.254Z,12.07
2017-02-06T13:55:48.073Z,12.03
2017-02-06T13:56:37.055Z,11.89
2017-02-06T13:57:25.704Z,11.88
2017-02-06T13:58:14.063Z,11.89
2017-02-06T13:59:03.245Z,11.76
2017-02-06T13:59:51.830Z,11.7
2017-02-06T14:00:40.082Z,11.73
2017-02-06T14:01:28.841Z,11.73
2017-02-06T14:02:17.203Z,11.76
2017-02-06T14:03:06.504Z,11.7
2017-02-06T14:03:54.854Z,11.73
2017-02-06T14:04:43.826Z,11.63
2017-02-06T14:07:04.881Z,11.67
2017-02-06T14:07:53.677Z,11.62
2017-02-06T14:08:42.577Z,11.56
2017-02-06T14:09:30.944Z,11.59
2017-02-06T14:10:19.679Z,11.51
2017-02-06T14:11:08.454Z,11.56
2017-02-06T14:11:57.134Z,11.49
2017-02-06T14:12:45.936Z,11.53
2017-02-06T14:13:34.493Z,11.48
2017-02-06T14:14:23.115Z,11.52
2017-02-06T14:15:12.642Z,11.52
2017-02-06T14:16:01.178Z,11.49
2017-02-06T14:16:49.804Z,11.51
2017-02-06T14:17:38.591Z,11.56
2017-02-06T14:18:27.523Z,11.48
2017-02-06T14:19:16.390Z,11.55
2017-02-06T14:20:05.725Z,11.58
2017-02-06T14:20:53.946Z,11.51
2017-02-06T14:21:42.736Z,11.44
2017-02-06T14:24:03.683Z,11.49
2017-02-06T14:24:52.348Z,11.45
2017-02-06T14:25:41.085Z,11.52
2017-02-06T14:26:29.688Z,11.45
2017-02-06T14:27:18.147Z,11.45
2017-02-06T14:28:06.718Z,11.43
2017-02-06T14:28:55.164Z,11.51
2017-02-06T14:29:44.082Z,11.52
2017-02-06T14:30:31.743Z,11.38
2017-02-06T14:31:20.762Z,11.52
2017-02-06T14:32:09.169Z,11.48
2017-02-06T14:32:58.239Z,11.49
2017-02-06T14:33:46.370Z,11.48
2017-02-06T14:34:35.469Z,11.55
2017-02-06T14:35:23.716Z,11.58
2017-02-06T14:36:13.496Z,11.65
2017-02-06T14:37:02.281Z,11.65
2017-02-06T14:37:50.704Z,11.67
2017-02-06T14:38:39.252Z,11.73
2017-02-06T14:42:34.141Z,11.6
2017-02-06T14:43:23.237Z,11.56
2017-02-06T14:44:11.833Z,11.44
2017-02-06T14:45:00.451Z,11.43
2017-02-06T14:45:49.119Z,11.35
2017-02-06T14:46:37.831Z,11.38
2017-02-06T14:47:27.971Z,11.4
2017-02-06T14:48:16.703Z,11.37
2017-02-06T14:49:05.461Z,11.3
2017-02-06T14:49:54.335Z,11.16
2017-02-06T14:50:42.803Z,11.13
2017-02-06T14:51:32.958Z,10.97
2017-02-06T14:52:22.409Z,10.95
2017-02-06T14:53:10.663Z,10.87
2017-02-06T14:53:59.425Z,10.79
2017-02-06T14:54:48.279Z,10.75
2017-02-06T14:55:36.837Z,10.65
2017-02-06T14:56:25.660Z,10.57
2017-02-06T14:57:14.143Z,10.55
2017-02-06T14:58:02.341Z,10.53
2017-02-06T15:00:24.454Z,10.48
2017-02-06T15:01:13.246Z,10.39
2017-02-06T15:02:01.636Z,10.33
2017-02-06T15:02:50.466Z,10.38
2017-02-06T15:03:39.342Z,10.13
2017-02-06T15:04:27.601Z,10.09
2017-02-06T15:05:16.797Z,10.03
2017-02-06T15:06:04.872Z,10.05
2017-02-06T15:06:53.935Z,10.09
2017-02-06T15:07:42.205Z,10.03
2017-02-06T15:08:30.914Z,10.06
2017-02-06T15:09:19.488Z,10
2017-02-06T15:10:11.773Z,10
2017-02-06T15:10:56.901Z,9.94
2017-02-06T15:11:45.446Z,9.9
2017-02-06T15:12:34.118Z,9.95
2017-02-06T15:13:22.698Z,9.88
2017-02-06T15:14:11.677Z,9.81
2017-02-06T15:15:00.554Z,9.84
2017-02-06T15:15:49.045Z,9.77
2017-02-06T15:16:37.796Z,9.77
2017-02-06T15:17:26.913Z,9.8
2017-02-06T15:18:15.243Z,9.67
2017-02-06T15:19:03.825Z,9.8
2017-02-06T15:19:52.559Z,9.72
2017-02-06T15:20:41.650Z,9.69
2017-02-06T15:21:30.790Z,9.62
2017-02-06T15:22:19.645Z,9.69
2017-02-06T15:23:08.019Z,9.58
2017-02-06T15:23:56.600Z,9.62
2017-02-06T15:24:43.297Z,9.56
2017-02-06T15:25:24.522Z,9.55
2017-02-06T15:26:07.460Z,9.49
2017-02-06T15:26:48.755Z,9.45
2017-02-06T15:27:29.200Z,9.34
2017-02-06T15:28:09.835Z,9.36
2017-02-06T15:28:50.310Z,9.39
2017-02-06T15:31:06.433Z,9.19
2017-02-06T15:31:54.999Z,9.15
2017-02-06T15:32:43.686Z,9.05
2017-02-06T15:33:32.071Z,9.02
2017-02-06T15:34:20.619Z,8.96
2017-02-06T15:35:09.307Z,8.96
2017-02-06T15:37:00.076Z,8.95
2017-02-06T15:37:48.746Z,8.89
2017-02-06T15:38:37.561Z,8.93
2017-02-06T15:39:26.148Z,8.86
2017-02-06T15:40:14.857Z,8.84
2017-02-06T15:41:03.601Z,8.87
2017-02-06T15:41:51.794Z,8.82
2017-02-06T15:42:39.684Z,8.74
2017-02-06T15:43:27.994Z,8.75
2017-02-06T15:44:16.555Z,8.79
2017-02-06T15:45:05.558Z,8.79
2017-02-06T15:45:54.273Z,8.77
2017-02-06T15:46:44.984Z,8.78
2017-02-06T15:47:33.315Z,8.75
2017-02-06T15:48:22.295Z,8.79
2017-02-06T15:49:10.936Z,8.81
2017-02-06T15:49:59.785Z,8.81
2017-02-06T15:50:48.174Z,8.75
2017-02-06T15:51:37.519Z,8.81
2017-02-06T15:52:26.150Z,8.77
2017-02-06T15:53:16.182Z,8.71
2017-02-06T15:54:04.995Z,8.68
2017-02-06T15:54:54.198Z,8.57
2017-02-06T15:55:43.315Z,8.54
2017-02-06T15:56:31.676Z,8.56
2017-02-06T15:57:21.079Z,8.45
2017-02-06T15:58:09.668Z,8.46
2017-02-06T15:58:57.948Z,8.45
2017-02-06T15:59:47.236Z,8.35
2017-02-06T16:00:35.970Z,8.34
2017-02-06T16:05:35.288Z,8.28
2017-02-06T16:06:26.928Z,8.23
2017-02-06T16:07:16.306Z,8.26
2017-02-06T16:08:05.263Z,8.17
2017-02-06T16:08:53.778Z,8.23
2017-02-06T16:09:42.657Z,8.16
2017-02-06T16:11:35.918Z,8.18
2017-02-06T16:12:25.053Z,8.17
2017-02-06T16:13:13.416Z,8.06
2017-02-06T16:14:01.909Z,8.11
2017-02-06T16:14:50.666Z,8.11
2017-02-06T16:15:39.858Z,8.06
2017-02-06T17:56:14.477Z,5.55
2017-02-06T17:56:58.979Z,5.54
2017-02-06T17:57:39.719Z,5.55
2017-02-06T17:58:22.300Z,5.55
2017-02-06T17:59:02.794Z,5.58
2017-02-06T17:59:43.849Z,5.56
2017-02-06T18:00:24.366Z,5.54
2017-02-06T18:35:12.038Z,5.59
2017-02-06T18:36:00.592Z,5.47
2017-02-06T18:36:48.908Z,5.51
2017-02-06T18:37:36.016Z,5.41
2017-02-06T18:38:24.720Z,5.46
2017-02-06T18:39:13.257Z,5.37
2017-02-06T18:40:02.183Z,5.4
2017-02-06T18:40:51.650Z,5.44
2017-02-06T18:41:40.040Z,5.43
2017-02-06T18:42:28.907Z,5.4
2017-02-06T18:43:17.607Z,5.43
2017-02-06T18:44:06.330Z,5.41
2017-02-06T18:44:54.814Z,5.33
2017-02-06T18:45:43.584Z,5.37
2017-02-06T18:46:32.623Z,5.33
2017-02-06T18:47:20.771Z,5.26
2017-02-06T18:48:09.579Z,5.25
2017-02-06T18:48:58.136Z,5.2
2017-02-06T18:49:46.900Z,5.23
2017-02-06T18:50:35.282Z,5.25
2017-02-06T18:51:24.442Z,5.15
2017-02-06T18:52:12.768Z,5.15
2017-02-06T18:53:01.600Z,5.15
2017-02-06T18:53:50.586Z,5.15
2017-02-06T18:54:38.742Z,5.12
2017-02-06T18:55:27.581Z,5.07
2017-02-06T18:56:16.516Z,5.07
2017-02-06T18:57:04.776Z,5.07
2017-02-06T18:57:53.348Z,5.04
2017-02-06T18:58:42.141Z,5.19
2017-02-06T19:01:06.502Z,5.05
2017-02-06T19:01:55.352Z,5.1
2017-02-06T19:02:43.941Z,5.07
2017-02-06T19:56:13.171Z,3.88
2017-02-06T19:57:01.639Z,3.92
2017-02-06T19:57:49.763Z,3.91
2017-02-06T19:58:38.514Z,3.84
2017-02-06T19:59:26.847Z,3.84
2017-02-06T20:00:16.080Z,3.85
2017-02-06T20:01:04.161Z,3.86
2017-02-06T20:01:53.495Z,3.85
2017-02-06T20:02:42.614Z,3.76
2017-02-06T20:03:31.505Z,3.77
2017-02-06T20:04:19.840Z,3.82
2017-02-06T20:05:08.869Z,3.82
2017-02-06T20:05:57.538Z,3.82
2017-02-06T20:06:45.728Z,3.81
2017-02-06T20:07:34.651Z,3.85
2017-02-06T20:08:23.566Z,3.84
2017-02-06T20:09:11.812Z,3.88
2017-02-06T20:10:00.966Z,3.91
2017-02-06T20:10:49.432Z,3.88
2017-02-06T20:11:37.924Z,3.89
2017-02-06T20:12:26.962Z,3.89
2017-02-06T20:13:15.194Z,4.03
2017-02-06T20:14:03.780Z,4.06
2017-02-06T20:14:52.731Z,3.92
2017-02-06T20:15:41.479Z,4.06
2017-02-06T20:16:29.738Z,3.95
2017-02-06T20:17:18.817Z,4.02
2017-02-06T20:18:07.839Z,4
2017-02-06T20:18:56.227Z,4.04
2017-02-06T20:19:45.120Z,4.03
2017-02-06T20:22:06.725Z,4.18
2017-02-06T20:22:55.382Z,4.21
2017-02-06T20:23:43.912Z,4.12
2017-02-06T20:24:32.764Z,4
2017-02-06T20:25:20.393Z,4.07
2017-02-06T20:26:07.965Z,4.03
2017-02-06T20:26:58.704Z,3.94
2017-02-06T20:27:47.382Z,4.04
2017-02-06T20:28:36.295Z,3.96
2017-02-06T20:29:24.527Z,3.95
2017-02-06T20:30:13.219Z,4.09
2017-02-06T20:31:02.306Z,3.94
2017-02-06T20:31:50.664Z,4.02
2017-02-06T20:32:39.460Z,4.06
2017-02-06T20:33:28.406Z,3.91
2017-02-06T20:34:16.472Z,3.99
2017-02-06T20:35:05.292Z,3.95
2017-02-06T20:35:54.428Z,4.06
2017-02-06T20:36:42.507Z,4.09
2017-02-06T20:40:37.589Z,3.96
2017-02-06T20:41:26.252Z,3.96
2017-02-06T20:42:14.673Z,4.03
2017-02-06T20:43:03.289Z,4.04
2017-02-06T20:43:51.920Z,3.92
2017-02-06T20:44:40.551Z,3.91
2017-02-06T20:45:28.003Z,3.91
2017-02-06T20:46:16.626Z,3.95
2017-02-06T20:47:05.057Z,3.94
2017-02-06T20:47:53.695Z,3.84
2017-02-06T20:48:42.475Z,3.92
2017-02-06T20:49:31.053Z,3.95
2017-02-06T20:50:19.579Z,4.04
2017-02-06T20:51:08.294Z,4.02
2017-02-06T20:51:57.121Z,3.96
2017-02-06T20:52:45.097Z,3.92
2017-02-06T20:53:33.738Z,4.06
2017-02-06T20:54:22.546Z,3.99
2017-02-06T20:55:11.122Z,4.07
2017-02-06T20:56:00.073Z,4.1
2017-02-06T20:56:48.875Z,4.04
2017-02-06T20:57:37.158Z,3.99
2017-02-06T20:58:25.820Z,4.06
2017-02-06T20:59:14.457Z,4.03
2017-02-06T21:00:03.422Z,3.92
2017-02-06T21:00:51.738Z,3.89
2017-02-06T21:01:40.595Z,3.95
2017-02-06T21:02:29.311Z,3.94
2017-02-06T21:03:17.955Z,4
2017-02-06T21:04:06.500Z,4.04
2017-02-06T21:04:55.372Z,3.95
2017-02-06T21:05:43.713Z,3.89
2017-02-06T21:06:32.563Z,3.92
2017-02-06T21:07:21.379Z,3.92
2017-02-06T21:08:07.491Z,3.94
2017-02-06T21:08:47.809Z,3.99
2017-02-06T21:09:29.226Z,4.06
2017-02-06T21:10:17.008Z,3.92
2017-02-06T21:10:57.482Z,4.07
2017-02-06T21:11:38.509Z,3.94
2017-02-06T21:12:19.869Z,3.91
2017-02-06T21:13:01.227Z,4.07
2017-02-06T21:13:42.601Z,4.06
2017-02-06T21:14:23.149Z,4.02
2017-02-06T21:15:04.207Z,4.04
2017-02-06T21:15:45.370Z,3.94
2017-02-06T21:16:25.813Z,4.06
2017-02-06T21:17:06.992Z,4.04
2017-02-06T21:17:47.456Z,3.99
2017-02-06T21:18:28.588Z,3.99
2017-02-06T21:19:10.431Z,4.04
2017-02-06T21:19:50.880Z,3.91
2017-02-06T21:20:31.384Z,4.07
2017-02-06T21:21:11.805Z,4.06
2017-02-06T21:21:52.870Z,3.86
2017-02-06T21:22:33.329Z,3.99
2017-02-06T21:23:13.729Z,3.94
2017-02-06T21:23:54.197Z,3.88
2017-02-06T21:24:35.449Z,3.86
2017-02-06T21:25:19.948Z,3.88
2017-02-06T21:26:00.424Z,3.88
2017-02-06T21:26:42.701Z,3.88
2017-02-06T21:27:25.939Z,3.92
2017-02-06T21:28:07.884Z,3.88
2017-02-06T21:28:48.354Z,3.88
2017-02-06T21:34:10.966Z,3.82
2017-02-06T21:34:59.737Z,3.82
2017-02-06T21:35:48.295Z,3.82
2017-02-06T21:36:37.191Z,3.73
2017-02-06T21:37:25.492Z,3.73
2017-02-06T21:38:14.300Z,3.94
2017-02-06T21:39:17.085Z,3.84
2017-02-06T21:39:52.191Z,3.85
2017-02-06T21:40:39.184Z,3.95
2017-02-06T21:41:27.948Z,3.91
2017-02-06T21:42:16.862Z,3.95
2017-02-06T21:43:05.441Z,3.92
2017-02-06T21:43:53.970Z,3.95
2017-02-06T21:44:42.698Z,3.92
2017-02-06T21:45:31.698Z,3.88
2017-02-06T21:46:20.023Z,3.89
2017-02-06T21:47:08.501Z,3.89
2017-02-06T21:47:57.246Z,3.86
2017-02-06T21:48:45.947Z,3.92
2017-02-06T21:49:34.546Z,3.88
2017-02-06T21:50:23.618Z,3.88
2017-02-06T21:51:12.280Z,3.84
2017-02-06T21:52:00.796Z,3.88
2017-02-06T21:53:52.357Z,3.76
2017-02-06T21:54:40.799Z,3.78
2017-02-06T21:55:29.022Z,3.77
2017-02-06T21:56:17.811Z,3.82
2017-02-06T21:57:06.417Z,3.88
2017-02-06T21:57:55.086Z,3.77
2017-02-06T21:58:43.873Z,3.78
2017-02-06T21:59:32.140Z,3.81
2017-02-06T22:00:21.021Z,3.78
2017-02-06T22:01:09.756Z,3.81
2017-02-06T22:01:58.349Z,3.78
2017-02-06T22:02:47.267Z,3.71
2017-02-06T22:03:35.643Z,3.78
2017-02-06T22:04:24.360Z,3.77
2017-02-06T22:05:13.239Z,3.85
2017-02-06T22:06:01.727Z,3.84
2017-02-06T22:06:50.124Z,3.78
2017-02-06T22:07:39.382Z,3.77
2017-02-06T22:08:27.716Z,3.76
